メインページ
METAR-TAF:

METAR-TAF

空港 :

トラート空港

トラート, タイ

緯度: 12-16-28N, 経度: 102-19-08E, 海抜: 32m

現時点の気象観測

当レポートは19分前の08:00(UTC)に作成
西/南西の風 10kt
気温 26°C
湿度 100%
気圧 1006 hPa
視程: 1500m
高度1600ftの雲はほとんどない, 積乱雲.
高度2000ftの雲は散在している
高度10000ftの千切れ雲あり
大雨,

METAR: VTBO 190800Z 25010KT 1500 +RA FEW016CB SCT020 BKN100 26/26 Q1006

時間: 15:19 (08:19 UTC)

予報

当レポートは3時間19分前の05:00(UTC)に作成
予報は19日の 06時(UTC)から 20日の 06時(UTC)まで有効
西/南西の風 8kt
視程: 8000m
高度2000ftの雲はほとんどない
高度10000ftの雲は散在している
19日の 08時(UTC)から 19日の 12時(UTC)まで一時的に
変向風 15kt
視程: 3000m
高度1800ftの雲はほとんどない, 積乱雲.
高度2200ftの雲は散在している
高度8000ftの千切れ雲あり
激しい雷雨, 雨
19日の 22時(UTC)から 20日の 02時(UTC)まで一時的に
変向風 15kt
視程: 3000m
高度1800ftの雲はほとんどない, 積乱雲.
高度2200ftの雲は散在している
高度8000ftの千切れ雲あり
激しい雷雨, 雨,

TAF: VTBO 190500Z 1906/2006 24008KT 8000 FEW020 SCT100 TEMPO 1908/1912 VRB15KT 3000 TSRA FEW018CB SCT022 BKN080 TEMPO 1922/2002 VRB15KT 3000 TSRA FEW018CB SCT022 BKN080

4,000以上の空港の気象観測と天気予報(METAR報とTAF報)

利用可能な観測所は地図上に黄色い丸と赤い丸で示す。

丸の上にカーソルを重ねると観測所名を参照できる。

次にクリックすると気象観測と天気予報を参照できる。

マップの切り替え:黒色「×」印の緑ボタンをクリックして拡大、「-」印の緑ボタンをクリックして縮小、緑色の三角印をクリックして隣りの地図に切り替え


METAR-TAF: